sensor_id;sensor_type;location;lat;lon;timestamp;pressure;altitude;pressure_sealevel;temperature
77599;BMP280;66758;52.078;5.070;2023-05-23T00:01:17;102118.38;;;13.96
77599;BMP280;66758;52.078;5.070;2023-05-23T00:03:42;102121.13;;;13.96
77599;BMP280;66758;52.078;5.070;2023-05-23T00:06:08;102125.03;;;13.95
77599;BMP280;66758;52.078;5.070;2023-05-23T00:08:34;102125.47;;;13.97
77599;BMP280;66758;52.078;5.070;2023-05-23T00:10:59;102123.88;;;13.96
77599;BMP280;66758;52.078;5.070;2023-05-23T00:13:25;102117.19;;;13.85
77599;BMP280;66758;52.078;5.070;2023-05-23T00:15:51;102130.28;;;14.12
77599;BMP280;66758;52.078;5.070;2023-05-23T00:18:17;102129.50;;;13.88
77599;BMP280;66758;52.078;5.070;2023-05-23T00:20:44;102133.72;;;13.97
77599;BMP280;66758;52.078;5.070;2023-05-23T00:23:11;102135.22;;;14.07
77599;BMP280;66758;52.078;5.070;2023-05-23T00:25:43;102130.88;;;14.06
77599;BMP280;66758;52.078;5.070;2023-05-23T00:28:13;102133.38;;;14.11
77599;BMP280;66758;52.078;5.070;2023-05-23T00:30:38;102134.75;;;14.17
77599;BMP280;66758;52.078;5.070;2023-05-23T00:33:03;102120.66;;;14.06
77599;BMP280;66758;52.078;5.070;2023-05-23T00:35:29;102128.34;;;14.13
77599;BMP280;66758;52.078;5.070;2023-05-23T00:37:55;102139.69;;;14.11
77599;BMP280;66758;52.078;5.070;2023-05-23T00:40:21;102132.56;;;14.10
77599;BMP280;66758;52.078;5.070;2023-05-23T00:42:47;102140.25;;;14.17
77599;BMP280;66758;52.078;5.070;2023-05-23T00:45:13;102139.78;;;14.15
77599;BMP280;66758;52.078;5.070;2023-05-23T00:47:42;102139.47;;;14.04
77599;BMP280;66758;52.078;5.070;2023-05-23T00:50:10;102143.16;;;13.96
77599;BMP280;66758;52.078;5.070;2023-05-23T00:52:37;102152.00;;;13.90
77599;BMP280;66758;52.078;5.070;2023-05-23T00:55:04;102145.88;;;13.84
77599;BMP280;66758;52.078;5.070;2023-05-23T00:57:29;102153.25;;;13.80
77599;BMP280;66758;52.078;5.070;2023-05-23T00:59:55;102148.88;;;13.79
77599;BMP280;66758;52.078;5.070;2023-05-23T01:02:20;102150.72;;;13.87
77599;BMP280;66758;52.078;5.070;2023-05-23T01:04:49;102158.97;;;13.75
77599;BMP280;66758;52.078;5.070;2023-05-23T01:07:20;102163.03;;;13.78
77599;BMP280;66758;52.078;5.070;2023-05-23T01:09:46;102164.34;;;13.71
77599;BMP280;66758;52.078;5.070;2023-05-23T01:15:18;102168.16;;;13.79
77599;BMP280;66758;52.078;5.070;2023-05-23T01:20:55;102169.91;;;13.84
77599;BMP280;66758;52.078;5.070;2023-05-23T01:26:32;102162.97;;;13.65
77599;BMP280;66758;52.078;5.070;2023-05-23T01:29:07;102163.59;;;13.71
77599;BMP280;66758;52.078;5.070;2023-05-23T01:31:36;102161.41;;;13.64
77599;BMP280;66758;52.078;5.070;2023-05-23T01:34:04;102156.47;;;13.70
77599;BMP280;66758;52.078;5.070;2023-05-23T01:36:39;102165.31;;;13.75
77599;BMP280;66758;52.078;5.070;2023-05-23T01:39:04;102152.91;;;13.69
77599;BMP280;66758;52.078;5.070;2023-05-23T01:41:30;102167.34;;;13.66
77599;BMP280;66758;52.078;5.070;2023-05-23T01:43:56;102165.06;;;13.68
77599;BMP280;66758;52.078;5.070;2023-05-23T01:46:22;102176.75;;;13.65
77599;BMP280;66758;52.078;5.070;2023-05-23T01:48:48;102181.91;;;13.67
77599;BMP280;66758;52.078;5.070;2023-05-23T01:51:14;102161.16;;;13.69
77599;BMP280;66758;52.078;5.070;2023-05-23T01:53:40;102175.75;;;13.70
77599;BMP280;66758;52.078;5.070;2023-05-23T01:56:07;102164.59;;;13.66
77599;BMP280;66758;52.078;5.070;2023-05-23T01:58:33;102165.72;;;13.65
77599;BMP280;66758;52.078;5.070;2023-05-23T02:00:58;102164.94;;;13.65
77599;BMP280;66758;52.078;5.070;2023-05-23T02:03:24;102172.53;;;13.68
77599;BMP280;66758;52.078;5.070;2023-05-23T02:05:50;102163.91;;;13.69
77599;BMP280;66758;52.078;5.070;2023-05-23T02:08:16;102162.41;;;13.72
77599;BMP280;66758;52.078;5.070;2023-05-23T02:10:41;102167.25;;;13.75
77599;BMP280;66758;52.078;5.070;2023-05-23T02:13:07;102151.75;;;13.70
77599;BMP280;66758;52.078;5.070;2023-05-23T02:15:32;102157.38;;;13.74
77599;BMP280;66758;52.078;5.070;2023-05-23T02:17:58;102160.13;;;13.74
77599;BMP280;66758;52.078;5.070;2023-05-23T02:20:23;102148.88;;;13.67
77599;BMP280;66758;52.078;5.070;2023-05-23T02:22:49;102170.47;;;13.77
77599;BMP280;66758;52.078;5.070;2023-05-23T02:25:14;102152.91;;;13.69
77599;BMP280;66758;52.078;5.070;2023-05-23T02:27:40;102172.88;;;13.79
77599;BMP280;66758;52.078;5.070;2023-05-23T02:30:06;102172.44;;;13.77
77599;BMP280;66758;52.078;5.070;2023-05-23T02:32:32;102175.19;;;13.77
77599;BMP280;66758;52.078;5.070;2023-05-23T02:34:57;102193.88;;;13.71
77599;BMP280;66758;52.078;5.070;2023-05-23T02:37:23;102192.38;;;13.73
77599;BMP280;66758;52.078;5.070;2023-05-23T02:39:49;102194.72;;;13.84
77599;BMP280;66758;52.078;5.070;2023-05-23T02:42:15;102187.19;;;13.72
77599;BMP280;66758;52.078;5.070;2023-05-23T02:44:43;102179.97;;;13.67
77599;BMP280;66758;52.078;5.070;2023-05-23T02:47:09;102188.59;;;13.78
77599;BMP280;66758;52.078;5.070;2023-05-23T02:49:35;102200.78;;;13.77
77599;BMP280;66758;52.078;5.070;2023-05-23T02:52:00;102192.84;;;13.75
77599;BMP280;66758;52.078;5.070;2023-05-23T02:54:26;102208.34;;;13.80
77599;BMP280;66758;52.078;5.070;2023-05-23T02:56:51;102195.38;;;13.81
77599;BMP280;66758;52.078;5.070;2023-05-23T02:59:18;102208.81;;;13.82
77599;BMP280;66758;52.078;5.070;2023-05-23T03:01:44;102208.94;;;13.86
77599;BMP280;66758;52.078;5.070;2023-05-23T03:04:10;102204.91;;;13.83
77599;BMP280;66758;52.078;5.070;2023-05-23T03:06:38;102201.91;;;13.64
77599;BMP280;66758;52.078;5.070;2023-05-23T03:09:04;102201.78;;;13.72
77599;BMP280;66758;52.078;5.070;2023-05-23T03:11:30;102213.81;;;13.56
77599;BMP280;66758;52.078;5.070;2023-05-23T03:13:55;102201.19;;;13.55
77599;BMP280;66758;52.078;5.070;2023-05-23T03:16:21;102203.13;;;13.54
77599;BMP280;66758;52.078;5.070;2023-05-23T03:18:47;102203.25;;;13.58
77599;BMP280;66758;52.078;5.070;2023-05-23T03:21:13;102204.75;;;13.55
77599;BMP280;66758;52.078;5.070;2023-05-23T03:23:38;102211.06;;;13.56
77599;BMP280;66758;52.078;5.070;2023-05-23T03:26:04;102205.28;;;13.49
77599;BMP280;66758;52.078;5.070;2023-05-23T03:28:30;102206.16;;;13.41
77599;BMP280;66758;52.078;5.070;2023-05-23T03:30:56;102224.84;;;13.35
77599;BMP280;66758;52.078;5.070;2023-05-23T03:33:22;102220.84;;;13.32
77599;BMP280;66758;52.078;5.070;2023-05-23T03:35:47;102210.97;;;13.31
77599;BMP280;66758;52.078;5.070;2023-05-23T03:38:13;102221.06;;;13.40
77599;BMP280;66758;52.078;5.070;2023-05-23T03:40:40;102219.91;;;13.28
77599;BMP280;66758;52.078;5.070;2023-05-23T03:43:09;102215.41;;;13.24
77599;BMP280;66758;52.078;5.070;2023-05-23T03:45:34;102217.84;;;13.25
77599;BMP280;66758;52.078;5.070;2023-05-23T03:48:00;102219.56;;;13.30
77599;BMP280;66758;52.078;5.070;2023-05-23T03:50:25;102233.22;;;13.26
77599;BMP280;66758;52.078;5.070;2023-05-23T03:52:51;102228.84;;;13.25
77599;BMP280;66758;52.078;5.070;2023-05-23T03:55:17;102224.34;;;13.21
77599;BMP280;66758;52.078;5.070;2023-05-23T03:57:47;102224.97;;;13.26
77599;BMP280;66758;52.078;5.070;2023-05-23T04:00:13;102231.94;;;13.24
77599;BMP280;66758;52.078;5.070;2023-05-23T04:02:39;102235.75;;;13.31
77599;BMP280;66758;52.078;5.070;2023-05-23T04:05:05;102236.75;;;13.27
77599;BMP280;66758;52.078;5.070;2023-05-23T04:07:31;102227.97;;;13.13
77599;BMP280;66758;52.078;5.070;2023-05-23T04:09:59;102247.09;;;13.09
77599;BMP280;66758;52.078;5.070;2023-05-23T04:12:25;102250.72;;;13.01
77599;BMP280;66758;52.078;5.070;2023-05-23T04:14:50;102260.47;;;12.99
77599;BMP280;66758;52.078;5.070;2023-05-23T04:17:16;102257.38;;;13.00
77599;BMP280;66758;52.078;5.070;2023-05-23T04:19:43;102259.59;;;12.86
77599;BMP280;66758;52.078;5.070;2023-05-23T04:22:09;102270.06;;;12.92
77599;BMP280;66758;52.078;5.070;2023-05-23T04:24:34;102263.66;;;12.80
77599;BMP280;66758;52.078;5.070;2023-05-23T04:27:01;102275.59;;;12.84
77599;BMP280;66758;52.078;5.070;2023-05-23T04:29:27;102277.22;;;12.85
77599;BMP280;66758;52.078;5.070;2023-05-23T04:31:56;102266.06;;;12.81
77599;BMP280;66758;52.078;5.070;2023-05-23T04:34:21;102270.16;;;12.75
77599;BMP280;66758;52.078;5.070;2023-05-23T04:36:47;102269.50;;;12.78
77599;BMP280;66758;52.078;5.070;2023-05-23T04:39:13;102279.88;;;12.73
77599;BMP280;66758;52.078;5.070;2023-05-23T04:41:41;102266.78;;;12.70
77599;BMP280;66758;52.078;5.070;2023-05-23T04:44:10;102265.97;;;12.69
77599;BMP280;66758;52.078;5.070;2023-05-23T04:46:36;102277.06;;;12.81
77599;BMP280;66758;52.078;5.070;2023-05-23T04:49:06;102280.47;;;12.87
77599;BMP280;66758;52.078;5.070;2023-05-23T04:51:32;102278.00;;;12.65
77599;BMP280;66758;52.078;5.070;2023-05-23T04:53:58;102297.81;;;12.79
77599;BMP280;66758;52.078;5.070;2023-05-23T04:56:23;102304.66;;;12.73
77599;BMP280;66758;52.078;5.070;2023-05-23T04:58:51;102307.50;;;12.47
77599;BMP280;66758;52.078;5.070;2023-05-23T05:01:17;102312.47;;;12.53
77599;BMP280;66758;52.078;5.070;2023-05-23T05:03:48;102302.56;;;12.61
77599;BMP280;66758;52.078;5.070;2023-05-23T05:06:14;102305.63;;;12.68
77599;BMP280;66758;52.078;5.070;2023-05-23T05:08:40;102317.63;;;12.64
77599;BMP280;66758;52.078;5.070;2023-05-23T05:11:06;102320.19;;;12.69
77599;BMP280;66758;52.078;5.070;2023-05-23T05:13:32;102317.50;;;12.60
77599;BMP280;66758;52.078;5.070;2023-05-23T05:15:57;102318.44;;;12.64
77599;BMP280;66758;52.078;5.070;2023-05-23T05:18:24;102327.38;;;12.52
77599;BMP280;66758;52.078;5.070;2023-05-23T05:20:50;102326.41;;;12.48
77599;BMP280;66758;52.078;5.070;2023-05-23T05:23:16;102335.47;;;12.49
77599;BMP280;66758;52.078;5.070;2023-05-23T05:25:42;102340.47;;;12.47
77599;BMP280;66758;52.078;5.070;2023-05-23T05:28:07;102351.81;;;12.45
77599;BMP280;66758;52.078;5.070;2023-05-23T05:30:33;102343.28;;;12.38
77599;BMP280;66758;52.078;5.070;2023-05-23T05:33:02;102350.03;;;12.49
77599;BMP280;66758;52.078;5.070;2023-05-23T05:35:32;102345.97;;;12.47
77599;BMP280;66758;52.078;5.070;2023-05-23T05:37:59;102349.69;;;12.51
77599;BMP280;66758;52.078;5.070;2023-05-23T05:40:25;102349.50;;;12.56
77599;BMP280;66758;52.078;5.070;2023-05-23T05:42:50;102344.50;;;12.58
77599;BMP280;66758;52.078;5.070;2023-05-23T05:45:19;102359.06;;;12.59
77599;BMP280;66758;52.078;5.070;2023-05-23T05:47:45;102361.03;;;12.49
77599;BMP280;66758;52.078;5.070;2023-05-23T05:50:11;102368.13;;;12.50
77599;BMP280;66758;52.078;5.070;2023-05-23T05:52:37;102377.63;;;12.62
77599;BMP280;66758;52.078;5.070;2023-05-23T05:55:05;102382.31;;;12.61
77599;BMP280;66758;52.078;5.070;2023-05-23T05:57:31;102382.38;;;12.52
77599;BMP280;66758;52.078;5.070;2023-05-23T05:59:57;102382.38;;;12.52
77599;BMP280;66758;52.078;5.070;2023-05-23T06:02:23;102401.47;;;12.40
77599;BMP280;66758;52.078;5.070;2023-05-23T06:04:48;102402.47;;;12.27
77599;BMP280;66758;52.078;5.070;2023-05-23T06:07:13;102397.28;;;12.26
77599;BMP280;66758;52.078;5.070;2023-05-23T06:09:39;102394.09;;;12.15
77599;BMP280;66758;52.078;5.070;2023-05-23T06:12:04;102398.91;;;12.35
77599;BMP280;66758;52.078;5.070;2023-05-23T06:14:30;102393.22;;;12.40
77599;BMP280;66758;52.078;5.070;2023-05-23T06:16:55;102402.78;;;12.34
77599;BMP280;66758;52.078;5.070;2023-05-23T06:19:21;102400.34;;;12.41
77599;BMP280;66758;52.078;5.070;2023-05-23T06:21:46;102402.63;;;12.39
77599;BMP280;66758;52.078;5.070;2023-05-23T06:24:17;102402.13;;;12.37
77599;BMP280;66758;52.078;5.070;2023-05-23T06:26:43;102400.22;;;12.29
77599;BMP280;66758;52.078;5.070;2023-05-23T06:29:08;102407.44;;;12.42
77599;BMP280;66758;52.078;5.070;2023-05-23T06:31:33;102411.66;;;12.40
77599;BMP280;66758;52.078;5.070;2023-05-23T06:34:00;102404.88;;;12.46
77599;BMP280;66758;52.078;5.070;2023-05-23T06:36:26;102413.56;;;12.48
77599;BMP280;66758;52.078;5.070;2023-05-23T06:38:51;102403.38;;;12.48
77599;BMP280;66758;52.078;5.070;2023-05-23T06:41:17;102402.47;;;12.36
77599;BMP280;66758;52.078;5.070;2023-05-23T06:43:42;102401.00;;;12.30
77599;BMP280;66758;52.078;5.070;2023-05-23T06:46:07;102396.75;;;12.58
77599;BMP280;66758;52.078;5.070;2023-05-23T06:48:33;102402.94;;;12.38
77599;BMP280;66758;52.078;5.070;2023-05-23T06:51:01;102404.69;;;12.42
77599;BMP280;66758;52.078;5.070;2023-05-23T06:53:27;102402.13;;;12.37
77599;BMP280;66758;52.078;5.070;2023-05-23T06:55:52;102413.44;;;12.53
77599;BMP280;66758;52.078;5.070;2023-05-23T06:58:18;102405.34;;;12.48
77599;BMP280;66758;52.078;5.070;2023-05-23T07:00:43;102421.25;;;12.17
77599;BMP280;66758;52.078;5.070;2023-05-23T07:03:09;102415.44;;;12.18
77599;BMP280;66758;52.078;5.070;2023-05-23T07:05:35;102407.47;;;12.34
77599;BMP280;66758;52.078;5.070;2023-05-23T07:08:01;102415.44;;;12.18
77599;BMP280;66758;52.078;5.070;2023-05-23T07:10:26;102431.56;;;12.28
77599;BMP280;66758;52.078;5.070;2023-05-23T07:12:52;102418.13;;;12.35
77599;BMP280;66758;52.078;5.070;2023-05-23T07:15:17;102428.63;;;12.50
77599;BMP280;66758;52.078;5.070;2023-05-23T07:17:43;102440.38;;;12.68
77599;BMP280;66758;52.078;5.070;2023-05-23T07:20:09;102423.63;;;12.90
77599;BMP280;66758;52.078;5.070;2023-05-23T07:22:34;102441.78;;;12.83
77599;BMP280;66758;52.078;5.070;2023-05-23T07:25:01;102427.91;;;12.71
77599;BMP280;66758;52.078;5.070;2023-05-23T07:27:27;102430.09;;;12.94
77599;BMP280;66758;52.078;5.070;2023-05-23T07:29:53;102430.44;;;12.93
77599;BMP280;66758;52.078;5.070;2023-05-23T07:32:18;102442.59;;;13.21
77599;BMP280;66758;52.078;5.070;2023-05-23T07:34:45;102438.50;;;13.27
77599;BMP280;66758;52.078;5.070;2023-05-23T07:37:10;102440.03;;;13.16
77599;BMP280;66758;52.078;5.070;2023-05-23T07:39:36;102429.41;;;13.06
77599;BMP280;66758;52.078;5.070;2023-05-23T07:42:01;102446.91;;;13.31
77599;BMP280;66758;52.078;5.070;2023-05-23T07:44:27;102436.53;;;13.37
77599;BMP280;66758;52.078;5.070;2023-05-23T07:46:52;102436.47;;;13.45
77599;BMP280;66758;52.078;5.070;2023-05-23T07:49:18;102442.78;;;13.66
77599;BMP280;66758;52.078;5.070;2023-05-23T07:51:43;102448.31;;;13.46
77599;BMP280;66758;52.078;5.070;2023-05-23T07:54:09;102456.88;;;13.44
77599;BMP280;66758;52.078;5.070;2023-05-23T07:56:37;102448.56;;;13.53
77599;BMP280;66758;52.078;5.070;2023-05-23T07:59:03;102438.38;;;13.74
77599;BMP280;66758;52.078;5.070;2023-05-23T08:01:29;102443.47;;;13.84
77599;BMP280;66758;52.078;5.070;2023-05-23T08:03:55;102450.59;;;13.85
77599;BMP280;66758;52.078;5.070;2023-05-23T08:06:21;102452.06;;;13.62
77599;BMP280;66758;52.078;5.070;2023-05-23T08:08:47;102464.56;;;13.80
77599;BMP280;66758;52.078;5.070;2023-05-23T08:11:12;102466.84;;;13.57
77599;BMP280;66758;52.078;5.070;2023-05-23T08:13:39;102452.47;;;13.52
77599;BMP280;66758;52.078;5.070;2023-05-23T08:16:05;102445.44;;;13.33
77599;BMP280;66758;52.078;5.070;2023-05-23T08:18:30;102477.25;;;13.52
77599;BMP280;66758;52.078;5.070;2023-05-23T08:20:58;102463.50;;;13.52
77599;BMP280;66758;52.078;5.070;2023-05-23T08:23:23;102463.22;;;13.65
77599;BMP280;66758;52.078;5.070;2023-05-23T08:25:50;102465.50;;;13.84
77599;BMP280;66758;52.078;5.070;2023-05-23T08:28:18;102468.06;;;13.68
77599;BMP280;66758;52.078;5.070;2023-05-23T08:30:43;102465.50;;;13.84
77599;BMP280;66758;52.078;5.070;2023-05-23T08:33:09;102468.22;;;13.93
77599;BMP280;66758;52.078;5.070;2023-05-23T08:35:35;102471.13;;;13.96
77599;BMP280;66758;52.078;5.070;2023-05-23T08:38:03;102471.16;;;14.08
77599;BMP280;66758;52.078;5.070;2023-05-23T08:40:30;102471.84;;;14.05
77599;BMP280;66758;52.078;5.070;2023-05-23T08:42:56;102470.22;;;14.04
77599;BMP280;66758;52.078;5.070;2023-05-23T08:45:22;102475.94;;;13.99
77599;BMP280;66758;52.078;5.070;2023-05-23T08:47:50;102479.06;;;14.10
77599;BMP280;66758;52.078;5.070;2023-05-23T08:50:16;102485.88;;;14.12
77599;BMP280;66758;52.078;5.070;2023-05-23T08:52:53;102476.00;;;14.11
77599;BMP280;66758;52.078;5.070;2023-05-23T08:55:27;102496.31;;;14.07
77599;BMP280;66758;52.078;5.070;2023-05-23T08:57:54;102482.53;;;14.40
77599;BMP280;66758;52.078;5.070;2023-05-23T09:00:22;102484.38;;;15.05
77599;BMP280;66758;52.078;5.070;2023-05-23T09:02:49;102470.47;;;15.02
77599;BMP280;66758;52.078;5.070;2023-05-23T09:05:21;102489.91;;;15.42
77599;BMP280;66758;52.078;5.070;2023-05-23T09:07:48;102483.34;;;14.97
77599;BMP280;66758;52.078;5.070;2023-05-23T09:10:18;102502.88;;;14.80
77599;BMP280;66758;52.078;5.070;2023-05-23T09:12:46;102495.19;;;14.74
77599;BMP280;66758;52.078;5.070;2023-05-23T09:15:14;102514.41;;;14.94
77599;BMP280;66758;52.078;5.070;2023-05-23T09:17:44;102497.72;;;14.46
77599;BMP280;66758;52.078;5.070;2023-05-23T09:20:12;102507.09;;;14.66
77599;BMP280;66758;52.078;5.070;2023-05-23T09:22:45;102500.50;;;15.27
77599;BMP280;66758;52.078;5.070;2023-05-23T09:25:11;102509.34;;;15.33
77599;BMP280;66758;52.078;5.070;2023-05-23T09:27:37;102513.69;;;14.97
77599;BMP280;66758;52.078;5.070;2023-05-23T09:30:07;102519.91;;;14.82
77599;BMP280;66758;52.078;5.070;2023-05-23T09:32:33;102507.59;;;14.80
77599;BMP280;66758;52.078;5.070;2023-05-23T09:35:00;102516.91;;;14.87
77599;BMP280;66758;52.078;5.070;2023-05-23T09:37:39;102512.47;;;14.29
77599;BMP280;66758;52.078;5.070;2023-05-23T09:40:16;102507.44;;;14.64
77599;BMP280;66758;52.078;5.070;2023-05-23T09:42:46;102511.47;;;14.67
77599;BMP280;66758;52.078;5.070;2023-05-23T09:45:13;102517.16;;;14.94
77599;BMP280;66758;52.078;5.070;2023-05-23T09:47:48;102526.88;;;15.37
77599;BMP280;66758;52.078;5.070;2023-05-23T09:50:18;102512.09;;;15.21
77599;BMP280;66758;52.078;5.070;2023-05-23T09:52:43;102509.78;;;14.86
77599;BMP280;66758;52.078;5.070;2023-05-23T09:55:09;102517.50;;;14.93
77599;BMP280;66758;52.078;5.070;2023-05-23T09:57:38;102526.84;;;15.01
77599;BMP280;66758;52.078;5.070;2023-05-23T10:00:05;102523.13;;;14.51
77599;BMP280;66758;52.078;5.070;2023-05-23T10:03:09;102530.47;;;14.80
77599;BMP280;66758;52.078;5.070;2023-05-23T10:05:46;102538.59;;;15.34
77599;BMP280;66758;52.078;5.070;2023-05-23T10:08:42;102531.75;;;15.68
77599;BMP280;66758;52.078;5.070;2023-05-23T10:13:48;102524.91;;;15.13
77599;BMP280;66758;52.078;5.070;2023-05-23T10:16:22;102539.28;;;15.19
77599;BMP280;66758;52.078;5.070;2023-05-23T10:19:02;102538.97;;;14.75
77599;BMP280;66758;52.078;5.070;2023-05-23T10:21:41;102537.84;;;14.88
77599;BMP280;66758;52.078;5.070;2023-05-23T10:24:08;102541.13;;;15.15
77599;BMP280;66758;52.078;5.070;2023-05-23T10:26:35;102538.16;;;14.75
77599;BMP280;66758;52.078;5.070;2023-05-23T10:29:02;102540.09;;;15.19
77599;BMP280;66758;52.078;5.070;2023-05-23T10:31:29;102533.06;;;16.26
77599;BMP280;66758;52.078;5.070;2023-05-23T10:34:07;102537.91;;;15.37
77599;BMP280;66758;52.078;5.070;2023-05-23T10:36:44;102550.78;;;15.33
77599;BMP280;66758;52.078;5.070;2023-05-23T10:39:21;102545.03;;;15.14
77599;BMP280;66758;52.078;5.070;2023-05-23T10:41:58;102548.47;;;15.59
77599;BMP280;66758;52.078;5.070;2023-05-23T10:44:30;102541.66;;;16.37
77599;BMP280;66758;52.078;5.070;2023-05-23T10:46:57;102560.13;;;15.93
77599;BMP280;66758;52.078;5.070;2023-05-23T10:49:43;102557.66;;;15.75
77599;BMP280;66758;52.078;5.070;2023-05-23T10:52:15;102556.03;;;15.62
77599;BMP280;66758;52.078;5.070;2023-05-23T10:54:52;102543.13;;;15.78
77599;BMP280;66758;52.078;5.070;2023-05-23T10:57:24;102546.19;;;16.88
77599;BMP280;66758;52.078;5.070;2023-05-23T10:59:53;102546.41;;;17.62
77599;BMP280;66758;52.078;5.070;2023-05-23T11:02:24;102535.47;;;16.87
77599;BMP280;66758;52.078;5.070;2023-05-23T11:05:20;102534.94;;;16.22
77599;BMP280;66758;52.078;5.070;2023-05-23T11:08:09;102550.19;;;15.03
77599;BMP280;66758;52.078;5.070;2023-05-23T11:13:16;102556.31;;;15.09
77599;BMP280;66758;52.078;5.070;2023-05-23T11:15:42;102548.13;;;15.12
77599;BMP280;66758;52.078;5.070;2023-05-23T11:18:18;102555.84;;;15.07
77599;BMP280;66758;52.078;5.070;2023-05-23T11:20:44;102565.81;;;14.99
77599;BMP280;66758;52.078;5.070;2023-05-23T11:23:11;102574.94;;;15.12
77599;BMP280;66758;52.078;5.070;2023-05-23T11:25:48;102558.66;;;15.71
77599;BMP280;66758;52.078;5.070;2023-05-23T11:28:13;102555.44;;;16.49
77599;BMP280;66758;52.078;5.070;2023-05-23T11:30:39;102543.38;;;17.51
77599;BMP280;66758;52.078;5.070;2023-05-23T11:33:10;102544.94;;;16.70
77599;BMP280;66758;52.078;5.070;2023-05-23T11:35:41;102549.84;;;16.92
77599;BMP280;66758;52.078;5.070;2023-05-23T11:38:09;102549.44;;;16.47
77599;BMP280;66758;52.078;5.070;2023-05-23T11:40:47;102545.66;;;16.83
77599;BMP280;66758;52.078;5.070;2023-05-23T11:43:15;102544.38;;;17.43
77599;BMP280;66758;52.078;5.070;2023-05-23T11:45:44;102550.31;;;17.26
77599;BMP280;66758;52.078;5.070;2023-05-23T11:48:14;102553.66;;;18.05
77599;BMP280;66758;52.078;5.070;2023-05-23T11:50:49;102561.19;;;16.87
77599;BMP280;66758;52.078;5.070;2023-05-23T11:53:16;102561.75;;;15.94
77599;BMP280;66758;52.078;5.070;2023-05-23T11:55:48;102550.16;;;16.44
77599;BMP280;66758;52.078;5.070;2023-05-23T11:58:13;102551.47;;;16.78
77599;BMP280;66758;52.078;5.070;2023-05-23T12:00:44;102551.94;;;16.95
77599;BMP280;66758;52.078;5.070;2023-05-23T12:03:12;102548.53;;;16.43
77599;BMP280;66758;52.078;5.070;2023-05-23T12:05:38;102555.22;;;15.86
77599;BMP280;66758;52.078;5.070;2023-05-23T12:08:03;102575.66;;;15.57
77599;BMP280;66758;52.078;5.070;2023-05-23T12:10:28;102576.56;;;16.13
77599;BMP280;66758;52.078;5.070;2023-05-23T12:12:54;102562.38;;;16.71
77599;BMP280;66758;52.078;5.070;2023-05-23T12:15:24;102564.22;;;16.82
77599;BMP280;66758;52.078;5.070;2023-05-23T12:17:53;102567.13;;;16.42
77599;BMP280;66758;52.078;5.070;2023-05-23T12:20:19;102582.44;;;16.12
77599;BMP280;66758;52.078;5.070;2023-05-23T12:22:45;102573.59;;;17.56
77599;BMP280;66758;52.078;5.070;2023-05-23T12:25:10;102579.50;;;17.39
77599;BMP280;66758;52.078;5.070;2023-05-23T12:27:39;102580.06;;;17.79
77599;BMP280;66758;52.078;5.070;2023-05-23T12:30:15;102574.72;;;16.05
77599;BMP280;66758;52.078;5.070;2023-05-23T12:32:42;102573.09;;;16.16
77599;BMP280;66758;52.078;5.070;2023-05-23T12:35:09;102570.84;;;16.78
77599;BMP280;66758;52.078;5.070;2023-05-23T12:37:42;102568.28;;;16.85
77599;BMP280;66758;52.078;5.070;2023-05-23T12:40:15;102574.97;;;17.46
77599;BMP280;66758;52.078;5.070;2023-05-23T12:42:55;102570.53;;;16.51
77599;BMP280;66758;52.078;5.070;2023-05-23T12:45:30;102571.78;;;15.86
77599;BMP280;66758;52.078;5.070;2023-05-23T12:47:56;102575.75;;;15.24
77599;BMP280;66758;52.078;5.070;2023-05-23T12:50:21;102573.44;;;16.15
77599;BMP280;66758;52.078;5.070;2023-05-23T12:52:47;102580.84;;;16.11
77599;BMP280;66758;52.078;5.070;2023-05-23T12:55:13;102581.78;;;17.02
77599;BMP280;66758;52.078;5.070;2023-05-23T12:57:39;102573.34;;;17.45
77599;BMP280;66758;52.078;5.070;2023-05-23T13:00:05;102578.97;;;16.15
77599;BMP280;66758;52.078;5.070;2023-05-23T13:02:32;102591.06;;;17.76
77599;BMP280;66758;52.078;5.070;2023-05-23T13:04:57;102580.84;;;17.61
77599;BMP280;66758;52.078;5.070;2023-05-23T13:07:22;102581.19;;;17.59
77599;BMP280;66758;52.078;5.070;2023-05-23T13:09:48;102580.38;;;17.59
77599;BMP280;66758;52.078;5.070;2023-05-23T13:12:14;102580.38;;;17.93
77599;BMP280;66758;52.078;5.070;2023-05-23T13:14:40;102586.50;;;18.41
77599;BMP280;66758;52.078;5.070;2023-05-23T13:17:06;102582.84;;;17.98
77599;BMP280;66758;52.078;5.070;2023-05-23T13:19:31;102579.63;;;17.11
77599;BMP280;66758;52.078;5.070;2023-05-23T13:22:02;102598.72;;;16.85
77599;BMP280;66758;52.078;5.070;2023-05-23T13:24:29;102588.09;;;17.84
77599;BMP280;66758;52.078;5.070;2023-05-23T13:26:54;102586.44;;;18.18
77599;BMP280;66758;52.078;5.070;2023-05-23T13:29:20;102586.59;;;16.89
77599;BMP280;66758;52.078;5.070;2023-05-23T13:31:45;102588.72;;;17.78
77599;BMP280;66758;52.078;5.070;2023-05-23T13:34:11;102575.13;;;18.08
77599;BMP280;66758;52.078;5.070;2023-05-23T13:36:36;102585.31;;;16.71
77599;BMP280;66758;52.078;5.070;2023-05-23T13:39:01;102579.28;;;16.53
77599;BMP280;66758;52.078;5.070;2023-05-23T13:41:27;102587.53;;;16.65
77599;BMP280;66758;52.078;5.070;2023-05-23T13:43:55;102601.59;;;18.24
77599;BMP280;66758;52.078;5.070;2023-05-23T13:46:20;102595.75;;;17.91
77599;BMP280;66758;52.078;5.070;2023-05-23T13:48:45;102585.78;;;17.04
77599;BMP280;66758;52.078;5.070;2023-05-23T13:51:11;102590.88;;;17.18
77599;BMP280;66758;52.078;5.070;2023-05-23T13:53:36;102593.91;;;17.13
77599;BMP280;66758;52.078;5.070;2023-05-23T13:56:02;102583.81;;;16.46
77599;BMP280;66758;52.078;5.070;2023-05-23T13:58:27;102584.06;;;16.84
77599;BMP280;66758;52.078;5.070;2023-05-23T14:00:54;102586.31;;;17.41
77599;BMP280;66758;52.078;5.070;2023-05-23T14:03:20;102588.22;;;19.17
77599;BMP280;66758;52.078;5.070;2023-05-23T14:05:45;102590.06;;;18.03
77599;BMP280;66758;52.078;5.070;2023-05-23T14:08:11;102582.78;;;17.60
77599;BMP280;66758;52.078;5.070;2023-05-23T14:10:38;102588.25;;;15.95
77599;BMP280;66758;52.078;5.070;2023-05-23T14:13:05;102593.44;;;15.72